Time;durP1;ratioP1;P1;durP2;ratioP2;P2;SDS_P1;SDS_P2;PMS_P1;PMS_P2;Temp;Humidity;BMP_temperature;BMP_pressure;BME280_temperature;BME280_humidity;BME280_pressure;Samples;Min_cycle;Max_cycle;Signal;HPM_P1;HPM_P2
2022/02/12 00:00:08;;;;;;;;;;;;;;;31.88;17.56;101290.09;5077533;28;830;-38
2022/02/12 00:02:33;;;;;;;;;;;;;;;31.86;17.57;101294.06;5078597;28;1362;-39
2022/02/12 00:04:58;;;;;;;;;;;;;;;31.39;17.91;101298.22;5077456;28;833;-37
2022/02/12 00:07:24;;;;;;;;;;;;;;;30.86;18.25;101302.19;5070259;28;857;-39
2022/02/12 00:09:49;;;;;;;;;;;;;;;30.45;18.74;101295.47;5077078;28;796;-37
2022/02/12 00:12:14;;;;;;;;;;;;;;;30.31;19.22;101298.03;5076301;28;1975;-39
2022/02/12 00:14:40;;;;;;;;;;;;;;;30.60;19.03;101305.44;5074903;28;857;-37
2022/02/12 00:17:05;;;;;;;;;;;;;;;31.10;18.77;101299.22;5077113;28;752;-37
2022/02/12 00:19:30;;;;;;;;;;;;;;;30.68;19.09;101311.56;5071631;28;1232;-39
2022/02/12 00:21:55;;;;;;;;;;;;;;;30.43;18.74;101309.25;5077527;28;814;-39
2022/02/12 00:24:21;;;;;;;;;;;;;;;30.36;18.87;101308.34;5077079;28;978;-38
2022/02/12 00:26:47;;;;;;;;;;;;;;;30.65;18.65;101316.53;5076320;28;857;-38
2022/02/12 00:29:12;;;;;;;;;;;;;;;30.94;18.09;101306.63;5075759;28;1484;-38
2022/02/12 00:31:37;;;;;;;;;;;;;;;31.02;18.10;101309.19;5074860;28;1017;-39
2022/02/12 00:34:02;;;;;;;;;;;;;;;30.70;18.55;101302.41;5071346;28;1913;-38
2022/02/12 00:36:28;;;;;;;;;;;;;;;30.85;18.55;101302.34;5076885;28;836;-38
2022/02/12 00:38:53;;;;;;;;;;;;;;;30.86;18.36;101301.31;5076742;28;1055;-39
2022/02/12 00:41:18;;;;;;;;;;;;;;;30.84;18.46;101298.81;5076639;28;761;-38
2022/02/12 00:43:44;;;;;;;;;;;;;;;30.87;18.61;101303.84;5076260;28;902;-38
2022/02/12 00:46:09;;;;;;;;;;;;;;;31.07;18.35;101299.59;5076351;28;825;-38
2022/02/12 00:48:34;;;;;;;;;;;;;;;31.26;18.07;101295.38;5076386;28;900;-38
2022/02/12 00:50:59;;;;;;;;;;;;;;;31.25;18.16;101289.09;5076580;28;892;-39
2022/02/12 00:53:25;;;;;;;;;;;;;;;30.89;18.55;101296.34;5076129;28;1878;-38
2022/02/12 00:55:51;;;;;;;;;;;;;;;31.31;18.38;101292.06;5076363;28;863;-38
2022/02/12 00:58:16;;;;;;;;;;;;;;;31.77;17.64;101290.66;5069949;28;900;-38
2022/02/12 01:00:41;;;;;;;;;;;;;;;31.82;17.63;101293.63;5076541;28;891;-38
2022/02/12 01:03:06;;;;;;;;;;;;;;;31.59;18.06;101300.22;5076216;28;1052;-38
2022/02/12 01:05:32;;;;;;;;;;;;;;;31.25;18.31;101297.25;5076164;28;833;-38
2022/02/12 01:07:57;;;;;;;;;;;;;;;31.16;18.21;101299.25;5076244;28;907;-37
2022/02/12 01:10:22;;;;;;;;;;;;;;;30.94;18.74;101290.31;5076175;28;820;-38
2022/02/12 01:12:48;;;;;;;;;;;;;;;30.90;18.98;101300.75;5076261;28;1897;-38
2022/02/12 01:15:13;;;;;;;;;;;;;;;30.89;19.09;101303.66;5075989;28;856;-37
2022/02/12 01:17:38;;;;;;;;;;;;;;;30.79;19.11;101299.38;5075678;28;860;-38
2022/02/12 01:20:04;;;;;;;;;;;;;;;30.83;19.03;101302.53;5076254;28;808;-38
2022/02/12 01:22:29;;;;;;;;;;;;;;;31.01;18.86;101295.81;5076231;28;797;-39
2022/02/12 01:24:54;;;;;;;;;;;;;;;31.23;18.85;101301.22;5075792;28;806;-39
2022/02/12 01:27:20;;;;;;;;;;;;;;;31.31;18.11;101298.34;5074386;28;841;-39
2022/02/12 01:29:45;;;;;;;;;;;;;;;31.06;18.55;101298.78;5075394;28;912;-39
2022/02/12 01:32:11;;;;;;;;;;;;;;;31.30;18.54;101307.50;5075793;28;1194;-38
2022/02/12 01:34:36;;;;;;;;;;;;;;;31.69;18.32;101310.72;5075603;28;1979;-37
2022/02/12 01:37:06;;;;;;;;;;;;;;;31.76;18.05;101314.31;5075639;28;807;-38
2022/02/12 01:39:32;;;;;;;;;;;;;;;31.89;18.06;101309.97;5075582;28;935;-38
2022/02/12 01:41:57;;;;;;;;;;;;;;;31.21;18.74;101315.00;5075700;28;761;-38
2022/02/12 01:44:41;;;;;;;;;;;;;;;31.14;18.77;101322.25;5079454;28;738;-37
2022/02/12 01:47:06;;;;;;;;;;;;;;;31.22;18.46;101321.25;5080030;28;773;-37
2022/02/12 01:49:32;;;;;;;;;;;;;;;30.95;18.70;101326.50;5079366;28;769;-37
2022/02/12 01:51:57;;;;;;;;;;;;;;;31.15;19.02;101330.19;5080081;28;911;-38
2022/02/12 01:54:23;;;;;;;;;;;;;;;31.53;18.61;101330.94;5079489;28;1890;-38
2022/02/12 01:56:48;;;;;;;;;;;;;;;31.80;18.19;101333.78;5080070;28;788;-39
2022/02/12 01:59:13;;;;;;;;;;;;;;;31.89;17.97;101337.19;5074343;28;895;-39
2022/02/12 02:01:39;;;;;;;;;;;;;;;31.30;18.51;101333.88;5079210;28;881;-39
2022/02/12 02:04:04;;;;;;;;;;;;;;;30.86;18.89;101332.06;5079611;28;896;-39
2022/02/12 02:06:29;;;;;;;;;;;;;;;30.60;19.35;101338.00;5078804;28;822;-38
2022/02/12 02:08:55;;;;;;;;;;;;;;;30.75;19.49;101335.22;5079214;28;869;-39
2022/02/12 02:11:21;;;;;;;;;;;;;;;31.20;18.81;101331.50;5079954;28;777;-38
2022/02/12 02:13:46;;;;;;;;;;;;;;;31.53;18.51;101330.94;5074345;28;1973;-39
2022/02/12 02:16:12;;;;;;;;;;;;;;;31.74;18.44;101324.56;5078935;28;860;-38
2022/02/12 02:18:37;;;;;;;;;;;;;;;31.15;19.00;101335.63;5079687;28;800;-39
2022/02/12 02:21:04;;;;;;;;;;;;;;;31.05;19.11;101337.84;5079079;28;976;-38
2022/02/12 02:23:29;;;;;;;;;;;;;;;31.16;18.88;101347.34;5079311;28;785;-38
2022/02/12 02:25:55;;;;;;;;;;;;;;;31.08;18.60;101348.31;5078967;28;817;-37
2022/02/12 02:28:20;;;;;;;;;;;;;;;30.76;19.01;101343.19;5072216;28;844;-38
2022/02/12 02:30:45;;;;;;;;;;;;;;;30.76;19.54;101343.19;5079159;28;821;-37
2022/02/12 02:33:10;;;;;;;;;;;;;;;30.63;19.40;101354.75;5078690;28;1964;-38
2022/02/12 02:35:36;;;;;;;;;;;;;;;30.68;19.52;101349.59;5078808;28;840;-39
2022/02/12 02:38:05;;;;;;;;;;;;;;;30.75;19.59;101357.81;5079036;28;923;-38
2022/02/12 02:40:31;;;;;;;;;;;;;;;30.94;19.25;101363.66;5078266;28;943;-38
2022/02/12 02:42:56;;;;;;;;;;;;;;;31.09;19.18;101365.47;5078929;28;762;-38
2022/02/12 02:45:21;;;;;;;;;;;;;;;31.13;18.54;101355.91;5079186;28;777;-38
2022/02/12 02:47:46;;;;;;;;;;;;;;;30.95;19.09;101357.19;5078922;28;856;-38
2022/02/12 02:56:02;;;;;;;;;;;;;;;30.85;19.34;101362.94;5077287;28;701;-39
2022/02/12 02:58:31;;;;;;;;;;;;;;;31.03;19.22;101373.34;5072360;28;833;-39
2022/02/12 03:00:56;;;;;;;;;;;;;;;31.29;18.88;101365.63;5078254;28;852;-39
2022/02/12 03:03:22;;;;;;;;;;;;;;;31.30;18.33;101367.31;5078961;28;746;-39
2022/02/12 03:05:47;;;;;;;;;;;;;;;31.03;18.93;101369.81;5078155;28;814;-37
2022/02/12 03:08:12;;;;;;;;;;;;;;;31.38;18.70;101372.59;5078204;28;889;-37
2022/02/12 03:10:38;;;;;;;;;;;;;;;31.37;18.81;101370.94;5078763;28;812;-37
2022/02/12 03:13:03;;;;;;;;;;;;;;;31.60;18.57;101380.75;5073491;28;1894;-38
2022/02/12 03:15:28;;;;;;;;;;;;;;;31.67;18.68;101382.66;5078261;28;842;-40
2022/02/12 03:17:54;;;;;;;;;;;;;;;31.11;19.04;101382.44;5077863;28;825;-39
2022/02/12 03:20:19;;;;;;;;;;;;;;;31.19;19.07;101387.72;5078148;28;802;-39
2022/02/12 03:22:45;;;;;;;;;;;;;;;31.31;18.58;101393.47;5078326;28;868;-39
2022/02/12 03:25:10;;;;;;;;;;;;;;;31.08;18.65;101393.69;5078057;28;793;-39
2022/02/12 03:27:35;;;;;;;;;;;;;;;31.04;19.16;101395.94;5077824;28;805;-38
2022/02/12 03:30:00;;;;;;;;;;;;;;;30.79;19.17;101393.56;5077658;28;781;-38
2022/02/12 03:32:26;;;;;;;;;;;;;;;30.68;19.52;101393.03;5077459;28;1977;-38
2022/02/12 03:34:51;;;;;;;;;;;;;;;30.71;19.45;101399.97;5078214;28;809;-38
2022/02/12 03:37:16;;;;;;;;;;;;;;;30.84;19.15;101395.75;5078061;28;837;-38
2022/02/12 03:39:42;;;;;;;;;;;;;;;31.10;18.99;101394.31;5077820;28;773;-38
2022/02/12 03:42:07;;;;;;;;;;;;;;;31.27;18.14;101395.75;5078084;28;1066;-39
2022/02/12 03:44:33;;;;;;;;;;;;;;;31.29;18.58;101398.25;5075555;28;1002;-38
2022/02/12 03:46:58;;;;;;;;;;;;;;;31.63;18.55;101388.50;5077815;28;797;-37
2022/02/12 03:49:23;;;;;;;;;;;;;;;31.87;18.29;101401.84;5077929;28;893;-38
2022/02/12 03:51:49;;;;;;;;;;;;;;;31.82;18.24;101397.00;5077650;28;886;-39
2022/02/12 03:54:14;;;;;;;;;;;;;;;31.75;18.15;101399.66;5077089;28;1982;-38
2022/02/12 03:56:39;;;;;;;;;;;;;;;31.27;18.89;101397.59;5077345;28;871;-38
2022/02/12 03:59:04;;;;;;;;;;;;;;;31.34;18.50;101403.94;5077212;28;929;-37
2022/02/12 04:01:30;;;;;;;;;;;;;;;31.17;18.69;101403.38;5076874;28;869;-38
2022/02/12 04:03:56;;;;;;;;;;;;;;;31.12;18.81;101400.41;5077952;28;772;-37
2022/02/12 04:06:21;;;;;;;;;;;;;;;31.65;18.55;101408.19;5077305;28;865;-38
2022/02/12 04:08:46;;;;;;;;;;;;;;;31.85;18.04;101414.78;5069658;28;801;-38
2022/02/12 04:11:12;;;;;;;;;;;;;;;31.94;18.18;101410.88;5077355;28;792;-38
2022/02/12 04:13:37;;;;;;;;;;;;;;;31.64;18.13;101409.25;5077172;28;1894;-38
2022/02/12 04:16:03;;;;;;;;;;;;;;;31.20;18.45;101405.69;5078284;28;1384;-39
2022/02/12 04:18:28;;;;;;;;;;;;;;;30.89;18.96;101398.72;5082922;28;896;-39
2022/02/12 04:20:53;;;;;;;;;;;;;;;30.59;18.86;101388.78;5077576;28;816;-39
2022/02/12 04:23:19;;;;;;;;;;;;;;;30.54;18.18;101402.94;5076556;28;793;-38
2022/02/12 04:25:44;;;;;;;;;;;;;;;30.57;18.59;101401.69;5081512;28;822;-37
2022/02/12 04:28:10;;;;;;;;;;;;;;;30.41;18.37;101409.00;5073479;28;874;-39
2022/02/12 04:30:37;;;;;;;;;;;;;;;30.34;18.34;101418.13;5075593;28;1284;-36
2022/02/12 04:33:02;;;;;;;;;;;;;;;30.37;18.33;101406.88;5081225;28;1914;-37
2022/02/12 04:35:27;;;;;;;;;;;;;;;30.50;18.15;101409.75;5081511;28;1244;-38
2022/02/12 04:37:53;;;;;;;;;;;;;;;29.75;15.25;101421.44;5078753;28;811;-42
2022/02/12 04:40:18;;;;;;;;;;;;;;;28.09;15.58;101417.84;5080454;28;864;-44
2022/02/12 04:42:43;;;;;;;;;;;;;;;27.38;16.14;101413.84;5076655;28;1181;-43
2022/02/12 04:45:09;;;;;;;;;;;;;;;26.90;16.50;101425.22;5077586;28;829;-43
2022/02/12 04:47:36;;;;;;;;;;;;;;;26.89;16.64;101427.06;5081056;28;840;-43
2022/02/12 04:50:02;;;;;;;;;;;;;;;26.36;16.65;101429.94;5082470;28;1008;-44
2022/02/12 04:52:27;;;;;;;;;;;;;;;26.27;18.22;101441.66;5076520;28;1902;-43
2022/02/12 04:54:52;;;;;;;;;;;;;;;26.64;19.74;101439.66;5076021;28;1166;-39
2022/02/12 04:57:17;;;;;;;;;;;;;;;27.04;19.97;101445.38;5078913;28;1458;-40
2022/02/12 04:59:43;;;;;;;;;;;;;;;26.79;19.77;101448.00;5076296;28;805;-40
2022/02/12 05:02:08;;;;;;;;;;;;;;;26.13;18.96;101445.78;5075550;28;762;-40
2022/02/12 05:04:33;;;;;;;;;;;;;;;25.93;18.69;101448.69;5075081;28;856;-42
2022/02/12 05:06:59;;;;;;;;;;;;;;;25.17;19.27;101443.66;5075787;28;792;-41
2022/02/12 05:09:24;;;;;;;;;;;;;;;24.12;19.48;101453.59;5076002;28;841;-41
2022/02/12 05:11:52;;;;;;;;;;;;;;;23.53;19.15;101448.28;5075739;28;817;-40
2022/02/12 05:14:18;;;;;;;;;;;;;;;23.89;19.01;101456.59;5075618;28;1906;-44
2022/02/12 05:16:43;;;;;;;;;;;;;;;25.46;18.83;101453.34;5075937;28;849;-37
2022/02/12 05:19:08;;;;;;;;;;;;;;;26.54;17.48;101456.00;5075255;28;879;-37
2022/02/12 05:21:34;;;;;;;;;;;;;;;27.10;16.72;101460.06;5075587;28;908;-37
2022/02/12 05:23:59;;;;;;;;;;;;;;;26.63;17.10;101464.94;5076295;28;900;-38
2022/02/12 05:26:25;;;;;;;;;;;;;;;27.59;16.94;101467.38;5069121;28;832;-37
2022/02/12 05:28:50;;;;;;;;;;;;;;;27.70;16.78;101470.78;5075650;28;902;-37
2022/02/12 05:31:15;;;;;;;;;;;;;;;27.95;16.93;101476.16;5076016;28;826;-37
2022/02/12 05:33:40;;;;;;;;;;;;;;;28.18;16.62;101478.16;5055709;28;2038;-42
2022/02/12 05:36:06;;;;;;;;;;;;;;;28.24;17.34;101482.88;5055198;28;821;-39
2022/02/12 05:38:32;;;;;;;;;;;;;;;28.43;17.42;101475.41;5049406;28;781;-37
2022/02/12 05:40:57;;;;;;;;;;;;;;;28.55;17.32;101492.97;5055558;28;833;-38
2022/02/12 05:43:22;;;;;;;;;;;;;;;28.77;17.39;101495.06;5053640;28;859;-38
2022/02/12 05:45:47;;;;;;;;;;;;;;;28.89;17.28;101501.78;5055521;28;824;-37
2022/02/12 05:48:13;;;;;;;;;;;;;;;28.86;17.49;101507.56;5055641;28;833;-38
2022/02/12 05:50:38;;;;;;;;;;;;;;;28.81;17.49;101509.97;5048974;28;926;-37
2022/02/12 05:53:03;;;;;;;;;;;;;;;27.63;18.18;101511.13;5055410;28;1902;-36
2022/02/12 05:55:29;;;;;;;;;;;;;;;26.96;18.89;101510.97;5055721;28;797;-37
2022/02/12 05:58:00;;;;;;;;;;;;;;;28.55;17.88;101530.00;5054874;28;973;-37
2022/02/12 06:00:26;;;;;;;;;;;;;;;28.89;17.54;101526.16;5054755;28;859;-37
2022/02/12 06:02:51;;;;;;;;;;;;;;;28.92;17.70;101542.06;5051644;28;784;-36
2022/02/12 06:05:16;;;;;;;;;;;;;;;28.84;18.05;101536.69;5054209;28;809;-36
2022/02/12 06:07:42;;;;;;;;;;;;;;;28.73;17.93;101551.44;5054678;28;793;-36
2022/02/12 06:10:07;;;;;;;;;;;;;;;27.53;19.36;101545.59;5055674;28;828;-36
2022/02/12 06:12:33;;;;;;;;;;;;;;;27.44;19.67;101536.63;5052059;28;1887;-38
2022/02/12 06:14:58;;;;;;;;;;;;;;;27.72;19.42;101550.72;5052981;28;837;-38
2022/02/12 06:17:24;;;;;;;;;;;;;;;27.61;19.56;101554.53;5043324;28;832;-36
2022/02/12 06:19:49;;;;;;;;;;;;;;;26.94;20.00;101556.19;5055102;28;778;-37
2022/02/12 06:22:14;;;;;;;;;;;;;;;26.75;20.67;101557.28;5054842;28;795;-36
2022/02/12 06:24:40;;;;;;;;;;;;;;;27.96;19.47;101562.53;5055141;28;884;-38
2022/02/12 06:27:06;;;;;;;;;;;;;;;28.57;18.69;101579.41;5055161;28;862;-36
2022/02/12 06:29:31;;;;;;;;;;;;;;;27.85;19.65;101588.06;5050534;28;985;-37
2022/02/12 06:31:57;;;;;;;;;;;;;;;27.43;20.06;101586.25;5064351;28;1126;-36
2022/02/12 06:34:22;;;;;;;;;;;;;;;26.95;20.50;101582.16;5078524;28;1914;-37
2022/02/12 06:36:47;;;;;;;;;;;;;;;26.81;20.73;101580.91;5079317;28;813;-36
2022/02/12 06:39:13;;;;;;;;;;;;;;;27.24;20.49;101583.66;5079474;28;1127;-36
2022/02/12 06:41:38;;;;;;;;;;;;;;;27.05;20.67;101589.31;5072691;28;1162;-36
2022/02/12 06:44:04;;;;;;;;;;;;;;;26.84;20.51;101594.09;5076584;28;1042;-36
2022/02/12 06:46:29;;;;;;;;;;;;;;;26.66;21.19;101588.75;5079194;28;857;-37
2022/02/12 06:48:54;;;;;;;;;;;;;;;26.40;21.40;101592.31;5078914;28;885;-36
2022/02/12 06:51:19;;;;;;;;;;;;;;;26.45;21.48;101600.78;5078478;28;935;-36
2022/02/12 06:53:45;;;;;;;;;;;;;;;26.29;21.45;101599.59;5078308;28;1897;-36
2022/02/12 06:56:10;;;;;;;;;;;;;;;26.24;21.58;101603.78;5078433;28;840;-34
2022/02/12 06:58:36;;;;;;;;;;;;;;;26.25;21.70;101600.94;5078551;28;866;-36
2022/02/12 07:01:01;;;;;;;;;;;;;;;26.35;21.42;101605.41;5078792;28;1270;-37
2022/02/12 07:03:26;;;;;;;;;;;;;;;26.37;21.57;101609.66;5078689;28;826;-36
2022/02/12 07:05:51;;;;;;;;;;;;;;;26.71;21.69;101604.50;5078275;28;1354;-40
2022/02/12 07:08:17;;;;;;;;;;;;;;;27.73;20.50;101613.72;5072955;28;884;-37
2022/02/12 07:10:42;;;;;;;;;;;;;;;28.13;20.03;101613.91;5078518;28;861;-38
2022/02/12 07:13:07;;;;;;;;;;;;;;;27.59;20.30;101612.47;5078292;28;1902;-36
2022/02/12 07:15:33;;;;;;;;;;;;;;;27.19;20.23;101613.03;5078440;28;841;-36
2022/02/12 07:17:58;;;;;;;;;;;;;;;26.87;20.71;101618.09;5078399;28;792;-35
2022/02/12 07:20:24;;;;;;;;;;;;;;;26.76;20.82;101619.19;5076304;28;864;-36
2022/02/12 07:22:49;;;;;;;;;;;;;;;26.54;21.50;101625.97;5078463;28;793;-36
2022/02/12 07:25:15;;;;;;;;;;;;;;;27.64;20.62;101626.34;5078314;28;833;-36
2022/02/12 07:27:40;;;;;;;;;;;;;;;27.74;20.49;101639.75;5075574;28;861;-37
2022/02/12 07:30:09;;;;;;;;;;;;;;;27.24;20.45;101634.97;5078314;28;790;-34
2022/02/12 07:32:35;;;;;;;;;;;;;;;27.12;20.89;101641.69;5072536;28;1984;-36
2022/02/12 07:35:00;;;;;;;;;;;;;;;26.83;21.19;101635.59;5077700;28;769;-36
2022/02/12 07:37:26;;;;;;;;;;;;;;;26.72;21.13;101642.13;5076503;28;1304;-36
2022/02/12 07:39:51;;;;;;;;;;;;;;;26.60;21.18;101646.06;5077889;28;1055;-36
2022/02/12 07:42:16;;;;;;;;;;;;;;;26.60;21.37;101657.72;5076687;28;881;-36
2022/02/12 07:44:41;;;;;;;;;;;;;;;26.57;21.16;101655.34;5077635;28;795;-36
2022/02/12 07:47:07;;;;;;;;;;;;;;;26.58;21.56;101665.13;5077688;28;780;-38
2022/02/12 07:49:32;;;;;;;;;;;;;;;26.53;21.58;101671.00;5077481;28;896;-35
2022/02/12 07:51:57;;;;;;;;;;;;;;;26.48;21.52;101667.06;5077298;28;769;-36
2022/02/12 07:54:23;;;;;;;;;;;;;;;26.40;21.32;101676.78;5077573;28;1961;-35
2022/02/12 07:56:53;;;;;;;;;;;;;;;26.44;21.45;101690.81;5077617;28;822;-36
2022/02/12 07:59:19;;;;;;;;;;;;;;;26.46;21.51;101685.28;5072502;28;858;-35
2022/02/12 08:01:44;;;;;;;;;;;;;;;26.48;21.58;101685.94;5077225;28;888;-36
2022/02/12 08:04:10;;;;;;;;;;;;;;;26.51;21.59;101691.88;5076840;28;822;-37
2022/02/12 08:09:19;;;;;;;;;;;;;;;26.44;22.06;101681.88;5077638;28;943;-35
2022/02/12 08:11:47;;;;;;;;;;;;;;;26.63;21.76;101695.19;5077229;28;879;-36
2022/02/12 08:14:12;;;;;;;;;;;;;;;26.67;21.89;101697.56;5072950;28;1954;-37
2022/02/12 08:16:37;;;;;;;;;;;;;;;26.94;21.86;101696.59;5076895;28;821;-37
2022/02/12 08:19:03;;;;;;;;;;;;;;;27.69;20.79;101698.84;5077479;28;839;-37
2022/02/12 08:21:31;;;;;;;;;;;;;;;27.51;20.68;101699.75;5076795;28;897;-36
2022/02/12 08:23:56;;;;;;;;;;;;;;;27.05;20.83;101691.94;5072753;28;792;-37
2022/02/12 08:26:21;;;;;;;;;;;;;;;26.84;21.34;101699.38;5076956;28;1084;-37
2022/02/12 08:28:47;;;;;;;;;;;;;;;27.74;20.99;101721.66;5076890;28;946;-38
2022/02/12 08:31:12;;;;;;;;;;;;;;;27.29;20.83;101723.66;5077157;28;738;-37
2022/02/12 08:33:37;;;;;;;;;;;;;;;27.01;20.92;101729.19;5076206;28;1906;-37
2022/02/12 08:36:03;;;;;;;;;;;;;;;26.76;21.22;101731.69;5075088;28;868;-37
2022/02/12 08:38:28;;;;;;;;;;;;;;;27.38;21.14;101738.03;5077080;28;918;-38
2022/02/12 08:40:53;;;;;;;;;;;;;;;27.69;20.44;101728.59;5076671;28;1122;-38
2022/02/12 08:43:18;;;;;;;;;;;;;;;28.02;20.06;101730.53;5070071;28;812;-38
2022/02/12 08:45:44;;;;;;;;;;;;;;;27.96;20.35;101732.06;5076417;28;805;-37
2022/02/12 08:48:09;;;;;;;;;;;;;;;28.73;19.56;101747.22;5076649;28;1064;-37
2022/02/12 08:50:37;;;;;;;;;;;;;;;29.03;18.92;101754.00;5071903;28;922;-37
2022/02/12 08:53:03;;;;;;;;;;;;;;;28.03;19.65;101751.19;5075926;28;1965;-37
2022/02/12 08:55:28;;;;;;;;;;;;;;;27.64;20.17;101777.72;5076671;28;801;-38
2022/02/12 08:57:54;;;;;;;;;;;;;;;27.31;20.63;101786.47;5071876;28;930;-37
2022/02/12 09:00:19;;;;;;;;;;;;;;;27.14;20.78;101791.75;5076597;28;783;-38
2022/02/12 09:02:45;;;;;;;;;;;;;;;27.00;20.92;101792.28;5075493;28;923;-37
2022/02/12 09:05:10;;;;;;;;;;;;;;;26.93;20.97;101789.38;5075538;28;1523;-37
2022/02/12 09:07:35;;;;;;;;;;;;;;;26.80;21.19;101811.38;5076232;28;912;-37
2022/02/12 09:10:01;;;;;;;;;;;;;;;26.87;20.98;101817.88;5076088;28;817;-37
2022/02/12 09:12:27;;;;;;;;;;;;;;;26.92;21.13;101809.28;5075628;28;894;-37
2022/02/12 09:14:52;;;;;;;;;;;;;;;26.88;20.97;101808.75;5065906;28;1906;-37
2022/02/12 09:17:17;;;;;;;;;;;;;;;26.81;21.05;101813.06;5076154;28;808;-36
2022/02/12 09:19:43;;;;;;;;;;;;;;;26.88;21.10;101802.50;5075691;28;804;-37
2022/02/12 09:22:08;;;;;;;;;;;;;;;26.78;21.09;101791.78;5076248;28;809;-37
2022/02/12 09:24:34;;;;;;;;;;;;;;;26.70;21.21;101795.25;5076170;28;813;-37
2022/02/12 09:26:59;;;;;;;;;;;;;;;26.76;21.51;101786.53;5070371;28;966;-38
2022/02/12 09:29:24;;;;;;;;;;;;;;;26.69;21.34;101785.47;5074339;28;1033;-37
2022/02/12 09:31:49;;;;;;;;;;;;;;;26.69;21.52;101796.28;5076140;28;1035;-37
2022/02/12 09:34:15;;;;;;;;;;;;;;;26.73;21.47;101807.59;5075787;28;1910;-35
2022/02/12 09:36:40;;;;;;;;;;;;;;;26.70;21.53;101802.50;5075905;28;915;-36
2022/02/12 09:39:06;;;;;;;;;;;;;;;26.70;21.27;101795.25;5075847;28;832;-36
2022/02/12 09:41:32;;;;;;;;;;;;;;;26.72;21.46;101805.91;5072096;28;856;-35
2022/02/12 09:43:57;;;;;;;;;;;;;;;26.75;21.12;101808.28;5075995;28;839;-37
2022/02/12 09:46:34;;;;;;;;;;;;;;;26.71;21.64;101815.84;5075486;28;780;-37
2022/02/12 09:48:59;;;;;;;;;;;;;;;26.67;21.37;101809.06;5075796;28;864;-37
2022/02/12 09:51:25;;;;;;;;;;;;;;;26.72;21.39;101804.06;5076188;28;738;-37
2022/02/12 09:53:51;;;;;;;;;;;;;;;27.24;21.15;101812.44;5068707;28;1963;-37
2022/02/12 09:56:16;;;;;;;;;;;;;;;27.55;20.92;101816.50;5075510;28;857;-36
2022/02/12 09:58:42;;;;;;;;;;;;;;;28.09;20.21;101823.56;5072746;28;944;-36
2022/02/12 10:01:08;;;;;;;;;;;;;;;27.41;20.43;101843.09;5075490;28;861;-37
2022/02/12 10:03:33;;;;;;;;;;;;;;;27.27;20.77;101849.94;5075527;28;891;-36
2022/02/12 10:05:59;;;;;;;;;;;;;;;27.21;20.58;101850.56;5079067;28;826;-36
2022/02/12 10:08:24;;;;;;;;;;;;;;;27.13;20.73;101859.44;5079500;28;1410;-38
2022/02/12 10:10:51;;;;;;;;;;;;;;;27.18;21.02;101873.31;5079114;28;864;-36
2022/02/12 10:13:18;;;;;;;;;;;;;;;27.79;20.19;101874.44;5079322;28;1955;-38
2022/02/12 10:15:47;;;;;;;;;;;;;;;27.59;20.41;101902.50;5079108;28;833;-37
2022/02/12 10:18:12;;;;;;;;;;;;;;;27.52;20.19;101890.66;5072569;28;823;-38
2022/02/12 10:20:38;;;;;;;;;;;;;;;27.29;20.74;101893.00;5079680;28;823;-38
2022/02/12 10:23:19;;;;;;;;;;;;;;;27.02;21.26;101883.00;5079029;28;742;-36
2022/02/12 10:26:05;;;;;;;;;;;;;;;27.04;21.00;101899.03;5079385;28;880;-36
2022/02/12 10:28:31;;;;;;;;;;;;;;;26.96;20.70;101901.63;5078109;28;1132;-35
2022/02/12 10:30:56;;;;;;;;;;;;;;;26.98;20.99;101899.59;5076450;28;1528;-37
2022/02/12 10:33:22;;;;;;;;;;;;;;;26.98;20.99;101903.16;5078503;28;1901;-36
2022/02/12 10:35:59;;;;;;;;;;;;;;;26.94;21.22;101892.84;5077660;28;880;-35
2022/02/12 10:38:29;;;;;;;;;;;;;;;26.76;21.35;101894.50;5078952;28;841;-37
2022/02/12 10:41:11;;;;;;;;;;;;;;;26.46;22.14;101907.34;5078463;28;834;-38
2022/02/12 10:43:37;;;;;;;;;;;;;;;26.27;22.26;101906.44;5067592;28;867;-39
2022/02/12 10:46:02;;;;;;;;;;;;;;;26.11;22.02;101898.94;5078658;28;1000;-38
2022/02/12 10:48:35;;;;;;;;;;;;;;;26.02;22.24;101919.59;5078871;28;786;-40
2022/02/12 10:51:01;;;;;;;;;;;;;;;25.91;22.56;101915.19;5078580;28;789;-38
2022/02/12 10:53:26;;;;;;;;;;;;;;;26.20;22.14;101920.63;5078721;28;1959;-39
2022/02/12 10:55:57;;;;;;;;;;;;;;;26.29;22.15;101923.28;5076277;28;749;-39
2022/02/12 10:58:23;;;;;;;;;;;;;;;26.21;22.24;101933.97;5078438;28;903;-39
2022/02/12 11:00:48;;;;;;;;;;;;;;;26.27;21.91;101930.69;5077483;28;833;-40
2022/02/12 11:03:16;;;;;;;;;;;;;;;26.31;22.28;101930.41;5078285;28;818;-39
2022/02/12 11:05:42;;;;;;;;;;;;;;;26.23;22.35;101945.47;5078354;28;766;-39
2022/02/12 11:08:07;;;;;;;;;;;;;;;26.17;22.61;101944.19;5078410;28;819;-38
2022/02/12 11:10:33;;;;;;;;;;;;;;;26.08;22.96;101938.84;5072629;28;819;-38
2022/02/12 11:12:59;;;;;;;;;;;;;;;26.83;22.15;101940.66;5071139;28;1968;-41
2022/02/12 11:15:29;;;;;;;;;;;;;;;27.21;22.12;101947.81;5077564;28;750;-40
2022/02/12 11:17:54;;;;;;;;;;;;;;;27.20;21.72;101948.81;5071642;28;805;-38
2022/02/12 11:20:19;;;;;;;;;;;;;;;26.27;20.33;101952.28;5077332;28;1136;-39
2022/02/12 11:22:44;;;;;;;;;;;;;;;25.96;20.12;101949.81;5078259;28;954;-39
2022/02/12 11:25:28;;;;;;;;;;;;;;;25.95;19.94;101955.34;5076927;28;902;-37
2022/02/12 11:28:20;;;;;;;;;;;;;;;26.07;19.46;101956.03;5078136;28;940;-38
2022/02/12 11:30:45;;;;;;;;;;;;;;;26.17;19.41;101952.28;5054071;28;1307;-39
2022/02/12 11:33:23;;;;;;;;;;;;;;;26.11;19.36;101958.28;5077435;28;1914;-38
2022/02/12 11:36:07;;;;;;;;;;;;;;;25.90;19.27;101958.47;5072852;28;939;-38
2022/02/12 11:38:33;;;;;;;;;;;;;;;25.74;19.21;101959.09;5077762;28;804;-38
2022/02/12 11:41:31;;;;;;;;;;;;;;;25.65;19.27;101967.03;5077774;28;811;-39
2022/02/12 11:43:56;;;;;;;;;;;;;;;25.49;19.45;101964.88;5040488;28;1564;-39
2022/02/12 11:46:40;;;;;;;;;;;;;;;25.53;19.25;101969.00;5077551;28;828;-39
2022/02/12 11:49:25;;;;;;;;;;;;;;;25.53;19.60;101974.38;5070929;28;793;-38
2022/02/12 11:51:50;;;;;;;;;;;;;;;25.43;19.32;101981.59;5077709;28;833;-38
2022/02/12 11:54:34;;;;;;;;;;;;;;;25.39;19.03;101972.13;5077296;28;1909;-39
2022/02/12 11:56:59;;;;;;;;;;;;;;;25.27;18.75;101979.47;5077245;28;1471;-38
2022/02/12 11:59:24;;;;;;;;;;;;;;;25.26;18.54;101981.31;5075336;28;1021;-38
2022/02/12 12:01:50;;;;;;;;;;;;;;;25.35;18.66;101978.78;5077110;28;943;-38
2022/02/12 12:04:16;;;;;;;;;;;;;;;25.72;18.96;101971.84;5077269;28;952;-41
2022/02/12 12:07:09;;;;;;;;;;;;;;;25.93;18.56;101979.75;5077331;28;1506;-40
2022/02/12 12:09:35;;;;;;;;;;;;;;;26.31;18.71;101979.78;5074315;28;1624;-40
2022/02/12 12:12:15;;;;;;;;;;;;;;;26.08;19.08;101990.06;5076709;28;866;-42
2022/02/12 12:14:40;;;;;;;;;;;;;;;25.85;18.77;101987.72;5071376;28;1910;-40
2022/02/12 12:17:06;;;;;;;;;;;;;;;25.67;18.89;101997.38;5076481;28;893;-39
2022/02/12 12:19:34;;;;;;;;;;;;;;;25.83;18.38;101998.63;5076982;28;1448;-41
2022/02/12 12:22:00;;;;;;;;;;;;;;;25.91;18.34;102006.00;5076582;28;890;-41
2022/02/12 12:24:26;;;;;;;;;;;;;;;25.72;18.32;102002.34;5076735;28;817;-41
2022/02/12 12:26:51;;;;;;;;;;;;;;;26.08;18.38;102001.72;5072026;28;837;-44
2022/02/12 12:32:01;;;;;;;;;;;;;;;27.23;19.70;102022.28;5076281;28;1173;-40
2022/02/12 12:34:27;;;;;;;;;;;;;;;27.70;19.45;102025.78;5076484;28;1902;-40
2022/02/12 12:36:56;;;;;;;;;;;;;;;27.70;18.88;102022.22;5076204;28;846;-44
2022/02/12 12:39:21;;;;;;;;;;;;;;;26.84;18.05;102009.81;5076630;28;885;-46
2022/02/12 12:41:47;;;;;;;;;;;;;;;26.41;18.82;102020.25;5075032;28;1286;-42
2022/02/12 12:44:13;;;;;;;;;;;;;;;26.10;18.32;102029.41;5074190;28;985;-45
2022/02/12 12:46:39;;;;;;;;;;;;;;;26.34;18.13;102022.69;5076375;28;884;-40
2022/02/12 12:49:04;;;;;;;;;;;;;;;26.72;17.66;102032.63;5076444;28;836;-43
2022/02/12 12:51:30;;;;;;;;;;;;;;;26.86;17.74;102031.31;5075774;28;853;-49
2022/02/12 12:53:55;;;;;;;;;;;;;;;26.99;17.76;102037.16;5075891;28;1894;-44
2022/02/12 12:56:23;;;;;;;;;;;;;;;27.20;17.01;102041.50;5074443;28;908;-45
2022/02/12 12:59:05;;;;;;;;;;;;;;;26.50;17.89;102042.81;5075988;28;1037;-44
2022/02/12 13:01:30;;;;;;;;;;;;;;;26.53;17.71;102046.06;5076506;28;813;-43